sensor_id;sensor_type;location;lat;lon;timestamp;temperature;humidity
22716;DHT22;11525;51.152;4.456;2023-11-19T00:00:36;14.40;99.90
22716;DHT22;11525;51.152;4.456;2023-11-19T00:03:02;14.30;99.90
22716;DHT22;11525;51.152;4.456;2023-11-19T00:05:28;14.30;99.90
22716;DHT22;11525;51.152;4.456;2023-11-19T00:07:54;14.20;99.90
22716;DHT22;11525;51.152;4.456;2023-11-19T00:10:20;14.20;99.90
22716;DHT22;11525;51.152;4.456;2023-11-19T00:12:47;14.20;99.90
22716;DHT22;11525;51.152;4.456;2023-11-19T00:15:14;14.20;99.90
22716;DHT22;11525;51.152;4.456;2023-11-19T00:17:41;14.20;99.90
22716;DHT22;11525;51.152;4.456;2023-11-19T00:20:11;14.20;99.90
22716;DHT22;11525;51.152;4.456;2023-11-19T00:22:37;14.10;99.90
22716;DHT22;11525;51.152;4.456;2023-11-19T00:25:03;14.10;99.90
22716;DHT22;11525;51.152;4.456;2023-11-19T00:27:29;14.10;99.90
22716;DHT22;11525;51.152;4.456;2023-11-19T00:29:55;14.20;99.90
22716;DHT22;11525;51.152;4.456;2023-11-19T00:32:22;14.20;99.90
22716;DHT22;11525;51.152;4.456;2023-11-19T00:34:48;14.20;99.90
22716;DHT22;11525;51.152;4.456;2023-11-19T00:37:15;14.20;99.90
22716;DHT22;11525;51.152;4.456;2023-11-19T00:39:41;14.20;99.90
22716;DHT22;11525;51.152;4.456;2023-11-19T00:42:07;14.20;99.90
22716;DHT22;11525;51.152;4.456;2023-11-19T00:44:33;14.20;99.90
22716;DHT22;11525;51.152;4.456;2023-11-19T00:46:59;14.00;99.90
22716;DHT22;11525;51.152;4.456;2023-11-19T00:49:25;14.30;99.90
22716;DHT22;11525;51.152;4.456;2023-11-19T00:51:51;14.30;99.90
22716;DHT22;11525;51.152;4.456;2023-11-19T00:54:17;14.30;99.90
22716;DHT22;11525;51.152;4.456;2023-11-19T00:56:43;14.30;99.90
22716;DHT22;11525;51.152;4.456;2023-11-19T00:59:10;14.30;99.90
22716;DHT22;11525;51.152;4.456;2023-11-19T01:01:36;14.10;99.90
22716;DHT22;11525;51.152;4.456;2023-11-19T01:04:02;14.30;99.90
22716;DHT22;11525;51.152;4.456;2023-11-19T01:06:32;14.40;99.90
22716;DHT22;11525;51.152;4.456;2023-11-19T01:08:58;14.30;99.90
22716;DHT22;11525;51.152;4.456;2023-11-19T01:11:25;14.30;99.90
22716;DHT22;11525;51.152;4.456;2023-11-19T01:13:51;14.20;99.90
22716;DHT22;11525;51.152;4.456;2023-11-19T01:16:18;14.20;99.90
22716;DHT22;11525;51.152;4.456;2023-11-19T01:18:47;14.10;99.90
22716;DHT22;11525;51.152;4.456;2023-11-19T01:21:12;14.20;99.90
22716;DHT22;11525;51.152;4.456;2023-11-19T01:23:40;14.20;99.90
22716;DHT22;11525;51.152;4.456;2023-11-19T01:26:09;14.10;99.90
22716;DHT22;11525;51.152;4.456;2023-11-19T01:28:36;14.10;99.90
22716;DHT22;11525;51.152;4.456;2023-11-19T01:31:02;14.10;99.90
22716;DHT22;11525;51.152;4.456;2023-11-19T01:33:29;14.20;99.90
22716;DHT22;11525;51.152;4.456;2023-11-19T01:35:55;14.10;99.90
22716;DHT22;11525;51.152;4.456;2023-11-19T01:38:21;14.00;99.90
22716;DHT22;11525;51.152;4.456;2023-11-19T01:40:47;13.90;99.90
22716;DHT22;11525;51.152;4.456;2023-11-19T01:43:30;13.90;99.90
22716;DHT22;11525;51.152;4.456;2023-11-19T01:45:56;14.00;99.90
22716;DHT22;11525;51.152;4.456;2023-11-19T01:48:22;14.10;99.90
22716;DHT22;11525;51.152;4.456;2023-11-19T01:50:48;14.00;99.90
22716;DHT22;11525;51.152;4.456;2023-11-19T01:53:14;14.00;99.90
22716;DHT22;11525;51.152;4.456;2023-11-19T01:55:40;14.00;99.90
22716;DHT22;11525;51.152;4.456;2023-11-19T01:58:07;14.00;99.90
22716;DHT22;11525;51.152;4.456;2023-11-19T02:00:35;14.00;99.90
22716;DHT22;11525;51.152;4.456;2023-11-19T02:03:02;14.00;99.90
22716;DHT22;11525;51.152;4.456;2023-11-19T02:05:29;14.00;99.90
22716;DHT22;11525;51.152;4.456;2023-11-19T02:07:54;14.00;99.90
22716;DHT22;11525;51.152;4.456;2023-11-19T02:10:20;14.00;99.90
22716;DHT22;11525;51.152;4.456;2023-11-19T02:12:46;13.90;99.90
22716;DHT22;11525;51.152;4.456;2023-11-19T02:15:12;13.90;99.90
22716;DHT22;11525;51.152;4.456;2023-11-19T02:17:38;13.90;99.90
22716;DHT22;11525;51.152;4.456;2023-11-19T02:20:04;13.90;99.90
22716;DHT22;11525;51.152;4.456;2023-11-19T02:22:34;13.70;99.90
22716;DHT22;11525;51.152;4.456;2023-11-19T02:25:14;13.70;99.90
22716;DHT22;11525;51.152;4.456;2023-11-19T02:27:59;13.70;99.90
22716;DHT22;11525;51.152;4.456;2023-11-19T02:30:26;13.90;99.90
22716;DHT22;11525;51.152;4.456;2023-11-19T02:32:53;13.90;99.90
22716;DHT22;11525;51.152;4.456;2023-11-19T02:35:19;13.80;99.90
22716;DHT22;11525;51.152;4.456;2023-11-19T02:37:47;13.90;99.90
22716;DHT22;11525;51.152;4.456;2023-11-19T02:40:13;13.90;99.90
22716;DHT22;11525;51.152;4.456;2023-11-19T02:42:39;13.80;99.90
22716;DHT22;11525;51.152;4.456;2023-11-19T02:45:05;13.70;99.90
22716;DHT22;11525;51.152;4.456;2023-11-19T02:47:33;13.70;99.90
22716;DHT22;11525;51.152;4.456;2023-11-19T02:49:59;13.70;99.90
22716;DHT22;11525;51.152;4.456;2023-11-19T02:52:25;13.60;99.90
22716;DHT22;11525;51.152;4.456;2023-11-19T02:54:51;13.50;99.90
22716;DHT22;11525;51.152;4.456;2023-11-19T02:57:17;13.60;99.90
22716;DHT22;11525;51.152;4.456;2023-11-19T02:59:46;13.60;99.90
22716;DHT22;11525;51.152;4.456;2023-11-19T03:02:12;13.40;99.90
22716;DHT22;11525;51.152;4.456;2023-11-19T03:04:41;13.30;99.90
22716;DHT22;11525;51.152;4.456;2023-11-19T03:07:09;13.30;99.90
22716;DHT22;11525;51.152;4.456;2023-11-19T03:09:35;13.30;99.90
22716;DHT22;11525;51.152;4.456;2023-11-19T03:12:01;13.10;99.90
22716;DHT22;11525;51.152;4.456;2023-11-19T03:14:27;13.10;99.90
22716;DHT22;11525;51.152;4.456;2023-11-19T03:16:53;13.00;99.90
22716;DHT22;11525;51.152;4.456;2023-11-19T03:19:19;13.00;99.90
22716;DHT22;11525;51.152;4.456;2023-11-19T03:21:45;13.10;99.90
22716;DHT22;11525;51.152;4.456;2023-11-19T03:24:13;13.20;99.90
22716;DHT22;11525;51.152;4.456;2023-11-19T03:26:39;13.20;99.90
22716;DHT22;11525;51.152;4.456;2023-11-19T03:29:04;13.30;99.90
22716;DHT22;11525;51.152;4.456;2023-11-19T03:31:30;13.40;99.90
22716;DHT22;11525;51.152;4.456;2023-11-19T03:33:56;13.30;99.90
22716;DHT22;11525;51.152;4.456;2023-11-19T03:36:22;13.30;99.90
22716;DHT22;11525;51.152;4.456;2023-11-19T03:38:48;13.30;99.90
22716;DHT22;11525;51.152;4.456;2023-11-19T03:41:14;13.10;99.90
22716;DHT22;11525;51.152;4.456;2023-11-19T03:43:41;13.20;99.90
22716;DHT22;11525;51.152;4.456;2023-11-19T03:46:20;13.30;99.90
22716;DHT22;11525;51.152;4.456;2023-11-19T03:48:49;13.40;99.90
22716;DHT22;11525;51.152;4.456;2023-11-19T03:51:16;13.40;99.90
22716;DHT22;11525;51.152;4.456;2023-11-19T03:53:45;13.40;99.90
22716;DHT22;11525;51.152;4.456;2023-11-19T03:56:11;13.50;99.90
22716;DHT22;11525;51.152;4.456;2023-11-19T03:58:38;13.60;99.90
22716;DHT22;11525;51.152;4.456;2023-11-19T04:01:11;13.60;99.90
22716;DHT22;11525;51.152;4.456;2023-11-19T04:03:40;13.60;99.90
22716;DHT22;11525;51.152;4.456;2023-11-19T04:06:06;13.70;99.90
22716;DHT22;11525;51.152;4.456;2023-11-19T04:08:32;13.70;99.90
22716;DHT22;11525;51.152;4.456;2023-11-19T04:10:57;13.70;99.90
22716;DHT22;11525;51.152;4.456;2023-11-19T04:13:23;13.60;99.90
22716;DHT22;11525;51.152;4.456;2023-11-19T04:15:50;13.40;99.90
22716;DHT22;11525;51.152;4.456;2023-11-19T04:18:16;13.30;99.90
22716;DHT22;11525;51.152;4.456;2023-11-19T04:20:42;13.30;99.90
22716;DHT22;11525;51.152;4.456;2023-11-19T04:23:08;13.10;99.90
22716;DHT22;11525;51.152;4.456;2023-11-19T04:25:35;13.20;99.90
22716;DHT22;11525;51.152;4.456;2023-11-19T04:28:01;13.10;99.90
22716;DHT22;11525;51.152;4.456;2023-11-19T04:30:28;13.00;99.90
22716;DHT22;11525;51.152;4.456;2023-11-19T04:32:54;13.00;99.90
22716;DHT22;11525;51.152;4.456;2023-11-19T04:35:20;13.00;99.90
22716;DHT22;11525;51.152;4.456;2023-11-19T04:37:46;13.00;99.90
22716;DHT22;11525;51.152;4.456;2023-11-19T04:40:13;13.00;99.90
22716;DHT22;11525;51.152;4.456;2023-11-19T04:42:38;13.10;99.90
22716;DHT22;11525;51.152;4.456;2023-11-19T04:45:07;12.90;99.90
22716;DHT22;11525;51.152;4.456;2023-11-19T04:47:36;12.80;99.90
22716;DHT22;11525;51.152;4.456;2023-11-19T04:50:02;12.60;99.90
22716;DHT22;11525;51.152;4.456;2023-11-19T04:52:29;12.60;99.90
22716;DHT22;11525;51.152;4.456;2023-11-19T04:54:54;12.60;99.90
22716;DHT22;11525;51.152;4.456;2023-11-19T04:57:20;12.40;99.90
22716;DHT22;11525;51.152;4.456;2023-11-19T04:59:46;12.50;99.90
22716;DHT22;11525;51.152;4.456;2023-11-19T05:02:12;12.50;99.90
22716;DHT22;11525;51.152;4.456;2023-11-19T05:04:42;12.50;99.90
22716;DHT22;11525;51.152;4.456;2023-11-19T05:07:09;12.50;99.90
22716;DHT22;11525;51.152;4.456;2023-11-19T05:09:35;12.60;99.90
22716;DHT22;11525;51.152;4.456;2023-11-19T05:12:01;12.50;99.90
22716;DHT22;11525;51.152;4.456;2023-11-19T05:14:27;12.40;99.90
22716;DHT22;11525;51.152;4.456;2023-11-19T05:16:53;12.40;99.90
22716;DHT22;11525;51.152;4.456;2023-11-19T05:19:19;12.50;99.90
22716;DHT22;11525;51.152;4.456;2023-11-19T05:21:45;12.50;99.90
22716;DHT22;11525;51.152;4.456;2023-11-19T05:24:11;12.40;99.90
22716;DHT22;11525;51.152;4.456;2023-11-19T05:26:39;12.50;99.90
22716;DHT22;11525;51.152;4.456;2023-11-19T05:29:06;12.40;99.90
22716;DHT22;11525;51.152;4.456;2023-11-19T05:31:31;12.40;99.90
22716;DHT22;11525;51.152;4.456;2023-11-19T05:33:57;12.40;99.90
22716;DHT22;11525;51.152;4.456;2023-11-19T05:36:23;12.40;99.90
22716;DHT22;11525;51.152;4.456;2023-11-19T05:38:49;12.30;99.90
22716;DHT22;11525;51.152;4.456;2023-11-19T05:41:15;12.30;99.90
22716;DHT22;11525;51.152;4.456;2023-11-19T05:43:41;12.30;99.90
22716;DHT22;11525;51.152;4.456;2023-11-19T05:46:07;12.30;99.90
22716;DHT22;11525;51.152;4.456;2023-11-19T05:48:34;12.10;99.90
22716;DHT22;11525;51.152;4.456;2023-11-19T05:51:00;12.30;99.90
22716;DHT22;11525;51.152;4.456;2023-11-19T05:53:26;12.30;99.90
22716;DHT22;11525;51.152;4.456;2023-11-19T05:55:51;12.20;99.90
22716;DHT22;11525;51.152;4.456;2023-11-19T05:58:25;12.10;99.90
22716;DHT22;11525;51.152;4.456;2023-11-19T06:00:52;12.10;99.90
22716;DHT22;11525;51.152;4.456;2023-11-19T06:03:19;12.10;99.90
22716;DHT22;11525;51.152;4.456;2023-11-19T06:05:45;12.10;99.90
22716;DHT22;11525;51.152;4.456;2023-11-19T06:08:12;12.20;99.90
22716;DHT22;11525;51.152;4.456;2023-11-19T06:10:42;12.30;99.90
22716;DHT22;11525;51.152;4.456;2023-11-19T06:13:08;12.50;99.90
22716;DHT22;11525;51.152;4.456;2023-11-19T06:15:36;12.50;99.90
22716;DHT22;11525;51.152;4.456;2023-11-19T06:18:02;12.40;99.90
22716;DHT22;11525;51.152;4.456;2023-11-19T06:20:29;12.50;99.90
22716;DHT22;11525;51.152;4.456;2023-11-19T06:22:57;12.60;99.90
22716;DHT22;11525;51.152;4.456;2023-11-19T06:25:23;12.60;99.90
22716;DHT22;11525;51.152;4.456;2023-11-19T06:27:52;12.60;99.90
22716;DHT22;11525;51.152;4.456;2023-11-19T06:30:19;12.60;99.90
22716;DHT22;11525;51.152;4.456;2023-11-19T06:32:45;12.60;99.90
22716;DHT22;11525;51.152;4.456;2023-11-19T06:35:11;12.50;99.90
22716;DHT22;11525;51.152;4.456;2023-11-19T06:37:39;12.50;99.90
22716;DHT22;11525;51.152;4.456;2023-11-19T06:40:05;12.20;99.90
22716;DHT22;11525;51.152;4.456;2023-11-19T06:42:31;12.30;99.90
22716;DHT22;11525;51.152;4.456;2023-11-19T06:44:57;12.40;99.90
22716;DHT22;11525;51.152;4.456;2023-11-19T06:47:26;12.40;99.90
22716;DHT22;11525;51.152;4.456;2023-11-19T06:49:53;12.40;99.90
22716;DHT22;11525;51.152;4.456;2023-11-19T06:52:19;12.20;99.90
22716;DHT22;11525;51.152;4.456;2023-11-19T06:54:45;12.10;99.90
22716;DHT22;11525;51.152;4.456;2023-11-19T06:57:11;12.00;99.90
22716;DHT22;11525;51.152;4.456;2023-11-19T06:59:37;12.10;99.90
22716;DHT22;11525;51.152;4.456;2023-11-19T07:02:03;12.10;99.90
22716;DHT22;11525;51.152;4.456;2023-11-19T07:04:30;12.00;99.90
22716;DHT22;11525;51.152;4.456;2023-11-19T07:06:56;12.00;99.90
22716;DHT22;11525;51.152;4.456;2023-11-19T07:09:22;12.10;99.90
22716;DHT22;11525;51.152;4.456;2023-11-19T07:11:49;12.00;99.90
22716;DHT22;11525;51.152;4.456;2023-11-19T07:14:17;12.00;99.90
22716;DHT22;11525;51.152;4.456;2023-11-19T07:16:44;12.00;99.90
22716;DHT22;11525;51.152;4.456;2023-11-19T07:19:10;12.00;99.90
22716;DHT22;11525;51.152;4.456;2023-11-19T07:21:36;12.20;99.90
22716;DHT22;11525;51.152;4.456;2023-11-19T07:24:05;12.10;99.90
22716;DHT22;11525;51.152;4.456;2023-11-19T07:26:31;12.30;99.90
22716;DHT22;11525;51.152;4.456;2023-11-19T07:28:57;12.30;99.90
22716;DHT22;11525;51.152;4.456;2023-11-19T07:31:23;12.30;99.90
22716;DHT22;11525;51.152;4.456;2023-11-19T07:33:50;12.30;99.90
22716;DHT22;11525;51.152;4.456;2023-11-19T07:36:15;12.40;99.90
22716;DHT22;11525;51.152;4.456;2023-11-19T07:38:42;12.50;99.90
22716;DHT22;11525;51.152;4.456;2023-11-19T07:41:08;12.50;99.90
22716;DHT22;11525;51.152;4.456;2023-11-19T07:43:44;12.60;99.90
22716;DHT22;11525;51.152;4.456;2023-11-19T07:46:13;12.60;99.90
22716;DHT22;11525;51.152;4.456;2023-11-19T07:48:39;12.90;99.90
22716;DHT22;11525;51.152;4.456;2023-11-19T07:51:05;12.90;99.90
22716;DHT22;11525;51.152;4.456;2023-11-19T07:53:31;13.00;99.90
22716;DHT22;11525;51.152;4.456;2023-11-19T07:55:58;13.10;99.90
22716;DHT22;11525;51.152;4.456;2023-11-19T07:58:25;13.30;99.90
22716;DHT22;11525;51.152;4.456;2023-11-19T08:00:51;13.30;99.90
22716;DHT22;11525;51.152;4.456;2023-11-19T08:03:17;13.30;99.90
22716;DHT22;11525;51.152;4.456;2023-11-19T08:05:45;13.40;99.90
22716;DHT22;11525;51.152;4.456;2023-11-19T08:08:11;13.60;99.90
22716;DHT22;11525;51.152;4.456;2023-11-19T08:10:37;13.60;99.90
22716;DHT22;11525;51.152;4.456;2023-11-19T08:13:03;13.70;99.90
22716;DHT22;11525;51.152;4.456;2023-11-19T08:15:29;13.70;99.90
22716;DHT22;11525;51.152;4.456;2023-11-19T08:17:55;13.80;99.90
22716;DHT22;11525;51.152;4.456;2023-11-19T08:20:22;14.20;99.90
22716;DHT22;11525;51.152;4.456;2023-11-19T08:22:48;14.00;99.90
22716;DHT22;11525;51.152;4.456;2023-11-19T08:25:14;14.00;99.90
22716;DHT22;11525;51.152;4.456;2023-11-19T08:27:39;14.00;99.90
22716;DHT22;11525;51.152;4.456;2023-11-19T08:30:06;14.00;99.90
22716;DHT22;11525;51.152;4.456;2023-11-19T08:32:32;14.00;99.90
22716;DHT22;11525;51.152;4.456;2023-11-19T08:34:57;14.10;99.90
22716;DHT22;11525;51.152;4.456;2023-11-19T08:37:23;14.50;99.90
22716;DHT22;11525;51.152;4.456;2023-11-19T08:39:50;14.80;99.90
22716;DHT22;11525;51.152;4.456;2023-11-19T08:42:19;15.00;99.90
22716;DHT22;11525;51.152;4.456;2023-11-19T08:44:49;15.50;99.90
22716;DHT22;11525;51.152;4.456;2023-11-19T08:47:16;15.90;99.90
22716;DHT22;11525;51.152;4.456;2023-11-19T08:49:45;16.50;99.90
22716;DHT22;11525;51.152;4.456;2023-11-19T08:52:11;16.60;99.90
22716;DHT22;11525;51.152;4.456;2023-11-19T08:54:37;16.60;99.90
22716;DHT22;11525;51.152;4.456;2023-11-19T08:57:03;16.90;99.90
22716;DHT22;11525;51.152;4.456;2023-11-19T08:59:30;17.00;99.90
22716;DHT22;11525;51.152;4.456;2023-11-19T09:01:55;17.10;99.90
22716;DHT22;11525;51.152;4.456;2023-11-19T09:04:21;17.30;99.90
22716;DHT22;11525;51.152;4.456;2023-11-19T09:06:50;17.00;99.90
22716;DHT22;11525;51.152;4.456;2023-11-19T09:09:15;17.40;99.90
22716;DHT22;11525;51.152;4.456;2023-11-19T09:11:41;18.20;99.90
22716;DHT22;11525;51.152;4.456;2023-11-19T09:14:07;19.00;99.90
22716;DHT22;11525;51.152;4.456;2023-11-19T09:16:33;19.20;99.90
22716;DHT22;11525;51.152;4.456;2023-11-19T09:19:00;19.20;99.90
22716;DHT22;11525;51.152;4.456;2023-11-19T09:21:27;18.90;99.90
22716;DHT22;11525;51.152;4.456;2023-11-19T09:23:55;18.80;99.90
22716;DHT22;11525;51.152;4.456;2023-11-19T09:26:21;18.60;99.90
22716;DHT22;11525;51.152;4.456;2023-11-19T09:28:47;18.60;99.90
22716;DHT22;11525;51.152;4.456;2023-11-19T09:31:16;18.70;99.90
22716;DHT22;11525;51.152;4.456;2023-11-19T09:33:43;19.00;99.90
22716;DHT22;11525;51.152;4.456;2023-11-19T09:36:09;19.20;99.90
22716;DHT22;11525;51.152;4.456;2023-11-19T09:38:37;19.80;99.90
22716;DHT22;11525;51.152;4.456;2023-11-19T09:41:05;19.80;99.90
22716;DHT22;11525;51.152;4.456;2023-11-19T09:43:34;19.10;99.90
22716;DHT22;11525;51.152;4.456;2023-11-19T09:46:05;19.00;99.90
22716;DHT22;11525;51.152;4.456;2023-11-19T09:48:33;19.30;99.90
22716;DHT22;11525;51.152;4.456;2023-11-19T09:51:01;18.40;99.90
22716;DHT22;11525;51.152;4.456;2023-11-19T09:53:27;18.50;99.90
22716;DHT22;11525;51.152;4.456;2023-11-19T09:55:53;19.30;99.90
22716;DHT22;11525;51.152;4.456;2023-11-19T09:58:20;19.50;99.90
22716;DHT22;11525;51.152;4.456;2023-11-19T10:00:48;20.40;99.90
22716;DHT22;11525;51.152;4.456;2023-11-19T10:03:14;20.40;99.90
22716;DHT22;11525;51.152;4.456;2023-11-19T10:05:40;20.50;99.90
22716;DHT22;11525;51.152;4.456;2023-11-19T10:08:06;20.80;99.90
22716;DHT22;11525;51.152;4.456;2023-11-19T10:10:33;20.70;99.90
22716;DHT22;11525;51.152;4.456;2023-11-19T10:12:59;20.90;99.90
22716;DHT22;11525;51.152;4.456;2023-11-19T10:15:26;20.90;99.90
22716;DHT22;11525;51.152;4.456;2023-11-19T10:17:58;20.80;99.90
22716;DHT22;11525;51.152;4.456;2023-11-19T10:20:24;21.00;99.90
22716;DHT22;11525;51.152;4.456;2023-11-19T10:22:53;20.20;99.90
22716;DHT22;11525;51.152;4.456;2023-11-19T10:25:26;19.30;99.90
22716;DHT22;11525;51.152;4.456;2023-11-19T10:27:53;18.80;99.90
22716;DHT22;11525;51.152;4.456;2023-11-19T10:30:26;18.30;99.90
22716;DHT22;11525;51.152;4.456;2023-11-19T10:33:05;18.00;99.90
22716;DHT22;11525;51.152;4.456;2023-11-19T10:35:35;17.60;99.90
22716;DHT22;11525;51.152;4.456;2023-11-19T10:38:14;17.10;99.90
22716;DHT22;11525;51.152;4.456;2023-11-19T10:40:43;16.90;99.90
22716;DHT22;11525;51.152;4.456;2023-11-19T10:43:09;16.80;99.90
22716;DHT22;11525;51.152;4.456;2023-11-19T10:45:36;16.70;99.90
22716;DHT22;11525;51.152;4.456;2023-11-19T10:48:03;16.60;99.90
22716;DHT22;11525;51.152;4.456;2023-11-19T10:50:40;16.20;99.90
22716;DHT22;11525;51.152;4.456;2023-11-19T10:53:08;15.80;99.90
22716;DHT22;11525;51.152;4.456;2023-11-19T10:55:37;15.70;99.90
22716;DHT22;11525;51.152;4.456;2023-11-19T10:58:10;15.50;99.90
22716;DHT22;11525;51.152;4.456;2023-11-19T11:00:40;15.20;99.90
22716;DHT22;11525;51.152;4.456;2023-11-19T11:03:14;15.30;99.90
22716;DHT22;11525;51.152;4.456;2023-11-19T11:05:41;15.10;99.90
22716;DHT22;11525;51.152;4.456;2023-11-19T11:08:08;15.20;99.90
22716;DHT22;11525;51.152;4.456;2023-11-19T11:10:40;15.20;99.90
22716;DHT22;11525;51.152;4.456;2023-11-19T11:13:09;15.10;99.90
22716;DHT22;11525;51.152;4.456;2023-11-19T11:15:36;15.20;99.90
22716;DHT22;11525;51.152;4.456;2023-11-19T11:18:03;15.20;99.90
22716;DHT22;11525;51.152;4.456;2023-11-19T11:20:30;15.60;99.90
22716;DHT22;11525;51.152;4.456;2023-11-19T11:28:52;15.90;99.90
22716;DHT22;11525;51.152;4.456;2023-11-19T11:39:36;15.70;99.90
22716;DHT22;11525;51.152;4.456;2023-11-19T11:45:02;15.60;99.90
22716;DHT22;11525;51.152;4.456;2023-11-19T11:50:13;15.70;99.90
22716;DHT22;11525;51.152;4.456;2023-11-19T11:55:29;15.70;99.90
22716;DHT22;11525;51.152;4.456;2023-11-19T11:57:59;15.70;99.90
22716;DHT22;11525;51.152;4.456;2023-11-19T12:00:31;15.80;99.90
22716;DHT22;11525;51.152;4.456;2023-11-19T12:02:59;15.80;99.90
22716;DHT22;11525;51.152;4.456;2023-11-19T12:05:26;15.70;99.90
22716;DHT22;11525;51.152;4.456;2023-11-19T12:07:56;15.60;99.90
22716;DHT22;11525;51.152;4.456;2023-11-19T12:10:24;15.40;99.90
22716;DHT22;11525;51.152;4.456;2023-11-19T12:12:53;15.30;99.90
22716;DHT22;11525;51.152;4.456;2023-11-19T12:15:19;15.20;99.90
22716;DHT22;11525;51.152;4.456;2023-11-19T12:17:50;15.00;99.90
22716;DHT22;11525;51.152;4.456;2023-11-19T12:20:18;14.70;99.90
22716;DHT22;11525;51.152;4.456;2023-11-19T12:22:45;14.50;99.90
22716;DHT22;11525;51.152;4.456;2023-11-19T12:25:12;14.40;99.90
22716;DHT22;11525;51.152;4.456;2023-11-19T12:27:44;14.20;99.90
22716;DHT22;11525;51.152;4.456;2023-11-19T12:30:10;14.00;99.90
22716;DHT22;11525;51.152;4.456;2023-11-19T12:32:43;13.90;99.90
22716;DHT22;11525;51.152;4.456;2023-11-19T12:35:12;13.60;99.90
22716;DHT22;11525;51.152;4.456;2023-11-19T12:37:45;13.60;99.90
22716;DHT22;11525;51.152;4.456;2023-11-19T12:40:25;13.50;99.90
22716;DHT22;11525;51.152;4.456;2023-11-19T12:42:52;13.50;99.90
22716;DHT22;11525;51.152;4.456;2023-11-19T12:45:19;13.70;99.90
22716;DHT22;11525;51.152;4.456;2023-11-19T12:47:46;13.70;99.90
22716;DHT22;11525;51.152;4.456;2023-11-19T12:50:13;13.60;99.90
22716;DHT22;11525;51.152;4.456;2023-11-19T12:52:40;13.60;99.90
22716;DHT22;11525;51.152;4.456;2023-11-19T12:55:27;13.50;99.90
22716;DHT22;11525;51.152;4.456;2023-11-19T12:57:53;13.80;99.90
22716;DHT22;11525;51.152;4.456;2023-11-19T13:00:24;13.70;99.90
22716;DHT22;11525;51.152;4.456;2023-11-19T13:02:55;13.90;99.90
22716;DHT22;11525;51.152;4.456;2023-11-19T13:05:28;14.20;99.90
22716;DHT22;11525;51.152;4.456;2023-11-19T13:10:30;14.50;99.90
22716;DHT22;11525;51.152;4.456;2023-11-19T13:13:06;14.50;99.90
22716;DHT22;11525;51.152;4.456;2023-11-19T13:15:34;14.40;99.90
22716;DHT22;11525;51.152;4.456;2023-11-19T13:18:00;14.50;99.90
22716;DHT22;11525;51.152;4.456;2023-11-19T13:20:26;14.70;99.90
22716;DHT22;11525;51.152;4.456;2023-11-19T13:22:57;14.60;99.90
22716;DHT22;11525;51.152;4.456;2023-11-19T13:25:23;14.50;99.90
22716;DHT22;11525;51.152;4.456;2023-11-19T13:27:49;14.30;99.90
22716;DHT22;11525;51.152;4.456;2023-11-19T13:30:15;14.30;99.90
22716;DHT22;11525;51.152;4.456;2023-11-19T13:32:41;14.20;99.90
22716;DHT22;11525;51.152;4.456;2023-11-19T13:35:09;14.10;99.90
22716;DHT22;11525;51.152;4.456;2023-11-19T13:37:35;13.90;99.90
22716;DHT22;11525;51.152;4.456;2023-11-19T13:40:00;13.90;99.90
22716;DHT22;11525;51.152;4.456;2023-11-19T13:42:26;13.90;99.90
22716;DHT22;11525;51.152;4.456;2023-11-19T13:44:52;14.00;99.90
22716;DHT22;11525;51.152;4.456;2023-11-19T13:47:18;13.90;99.90
22716;DHT22;11525;51.152;4.456;2023-11-19T13:49:47;14.10;99.90
22716;DHT22;11525;51.152;4.456;2023-11-19T13:52:13;14.30;99.90
22716;DHT22;11525;51.152;4.456;2023-11-19T13:54:39;14.40;99.90
22716;DHT22;11525;51.152;4.456;2023-11-19T13:57:05;14.50;99.90
22716;DHT22;11525;51.152;4.456;2023-11-19T13:59:31;14.60;99.90
22716;DHT22;11525;51.152;4.456;2023-11-19T14:01:58;14.70;99.90
22716;DHT22;11525;51.152;4.456;2023-11-19T14:04:24;14.90;99.90
22716;DHT22;11525;51.152;4.456;2023-11-19T14:06:50;15.00;99.90
22716;DHT22;11525;51.152;4.456;2023-11-19T14:09:17;15.00;99.90
22716;DHT22;11525;51.152;4.456;2023-11-19T14:11:43;15.00;99.90
22716;DHT22;11525;51.152;4.456;2023-11-19T14:14:09;15.20;99.90
22716;DHT22;11525;51.152;4.456;2023-11-19T14:16:35;15.20;99.90
22716;DHT22;11525;51.152;4.456;2023-11-19T14:19:00;15.20;99.90
22716;DHT22;11525;51.152;4.456;2023-11-19T14:21:26;15.20;99.90
22716;DHT22;11525;51.152;4.456;2023-11-19T14:23:52;15.20;99.90
22716;DHT22;11525;51.152;4.456;2023-11-19T14:26:18;15.30;99.90
22716;DHT22;11525;51.152;4.456;2023-11-19T14:28:44;15.00;99.90
22716;DHT22;11525;51.152;4.456;2023-11-19T14:31:10;14.80;99.90
22716;DHT22;11525;51.152;4.456;2023-11-19T14:33:35;14.50;99.90
22716;DHT22;11525;51.152;4.456;2023-11-19T14:36:03;14.20;99.90
22716;DHT22;11525;51.152;4.456;2023-11-19T14:38:33;14.10;99.90
22716;DHT22;11525;51.152;4.456;2023-11-19T14:40:58;13.90;99.90
22716;DHT22;11525;51.152;4.456;2023-11-19T14:43:25;13.70;99.90
22716;DHT22;11525;51.152;4.456;2023-11-19T14:45:51;13.50;99.90
22716;DHT22;11525;51.152;4.456;2023-11-19T14:48:17;13.40;99.90
22716;DHT22;11525;51.152;4.456;2023-11-19T14:50:46;13.30;99.90
22716;DHT22;11525;51.152;4.456;2023-11-19T14:53:18;13.50;99.90
22716;DHT22;11525;51.152;4.456;2023-11-19T14:55:45;13.40;99.90
22716;DHT22;11525;51.152;4.456;2023-11-19T14:58:11;13.30;99.90
22716;DHT22;11525;51.152;4.456;2023-11-19T15:00:36;13.40;99.90
22716;DHT22;11525;51.152;4.456;2023-11-19T15:03:02;13.20;99.90
22716;DHT22;11525;51.152;4.456;2023-11-19T15:05:28;13.10;99.90
22716;DHT22;11525;51.152;4.456;2023-11-19T15:07:55;13.20;99.90
22716;DHT22;11525;51.152;4.456;2023-11-19T15:10:24;13.30;99.90
22716;DHT22;11525;51.152;4.456;2023-11-19T15:12:50;13.20;99.90
22716;DHT22;11525;51.152;4.456;2023-11-19T15:15:16;13.30;99.90
22716;DHT22;11525;51.152;4.456;2023-11-19T15:17:42;13.30;99.90
22716;DHT22;11525;51.152;4.456;2023-11-19T15:20:08;13.10;99.90
22716;DHT22;11525;51.152;4.456;2023-11-19T15:22:34;13.10;99.90
22716;DHT22;11525;51.152;4.456;2023-11-19T15:25:00;13.20;99.90
22716;DHT22;11525;51.152;4.456;2023-11-19T15:27:27;13.30;99.90
22716;DHT22;11525;51.152;4.456;2023-11-19T15:29:53;13.30;99.90
22716;DHT22;11525;51.152;4.456;2023-11-19T15:32:19;13.30;99.90
22716;DHT22;11525;51.152;4.456;2023-11-19T15:34:45;13.30;99.90
22716;DHT22;11525;51.152;4.456;2023-11-19T15:37:10;13.50;99.90
22716;DHT22;11525;51.152;4.456;2023-11-19T15:39:38;13.70;99.90
22716;DHT22;11525;51.152;4.456;2023-11-19T15:42:04;13.60;99.90
22716;DHT22;11525;51.152;4.456;2023-11-19T15:44:30;13.50;99.90
22716;DHT22;11525;51.152;4.456;2023-11-19T15:46:56;13.60;99.90
22716;DHT22;11525;51.152;4.456;2023-11-19T15:49:21;13.60;99.90
22716;DHT22;11525;51.152;4.456;2023-11-19T15:51:47;13.60;99.90
22716;DHT22;11525;51.152;4.456;2023-11-19T15:54:13;13.50;99.90